createdAt,value
2022-08-05T00:00:52.167Z,99.90
2022-08-05T00:03:54.370Z,99.90
2022-08-05T00:06:59.551Z,99.90
2022-08-05T00:10:02.142Z,99.90
2022-08-05T00:13:04.573Z,99.90
2022-08-05T00:16:12.135Z,99.90
2022-08-05T00:19:14.598Z,99.90
2022-08-05T00:22:17.949Z,99.90
2022-08-05T00:25:20.232Z,99.90
2022-08-05T00:28:29.592Z,99.90
2022-08-05T00:31:54.222Z,99.90
2022-08-05T00:35:06.559Z,99.90
2022-08-05T00:38:09.869Z,99.90
2022-08-05T00:41:12.339Z,99.90
2022-08-05T00:44:14.787Z,99.90
2022-08-05T00:47:16.898Z,99.90
2022-08-05T00:50:20.879Z,99.90
2022-08-05T00:54:00.085Z,99.90
2022-08-05T00:56:51.574Z,99.90
2022-08-05T00:59:54.392Z,99.90
2022-08-05T01:02:58.242Z,99.90
2022-08-05T01:06:03.841Z,99.90
2022-08-05T01:09:08.012Z,99.90
2022-08-05T01:12:18.154Z,99.90
2022-08-05T01:15:36.027Z,99.90
2022-08-05T01:18:43.406Z,99.90
2022-08-05T01:22:00.089Z,99.90
2022-08-05T01:25:23.944Z,99.90
2022-08-05T01:29:04.376Z,99.90
2022-08-05T01:32:12.428Z,99.90
2022-08-05T01:35:52.125Z,99.90
2022-08-05T01:38:50.836Z,99.90
2022-08-05T01:41:53.382Z,99.90
2022-08-05T01:44:59.179Z,99.90
2022-08-05T01:48:03.818Z,99.90
2022-08-05T01:51:15.009Z,99.90
2022-08-05T01:54:23.666Z,99.90
2022-08-05T01:58:29.870Z,99.90
2022-08-05T02:01:06.058Z,99.90
2022-08-05T02:04:12.147Z,99.90
2022-08-05T02:07:20.226Z,99.90
2022-08-05T02:10:29.011Z,99.90
2022-08-05T02:13:53.987Z,99.90
2022-08-05T02:16:59.673Z,99.90
2022-08-05T02:20:06.749Z,99.90
2022-08-05T02:23:12.143Z,99.90
2022-08-05T02:26:22.369Z,99.90
2022-08-05T02:29:58.770Z,99.90
2022-08-05T02:32:54.442Z,99.90
2022-08-05T02:36:01.249Z,99.90
2022-08-05T02:39:08.854Z,99.90
2022-08-05T02:42:11.683Z,99.90
2022-08-05T02:45:52.622Z,99.90
2022-08-05T02:48:54.171Z,99.90
2022-08-05T02:52:02.745Z,99.90
2022-08-05T02:55:10.835Z,99.90
2022-08-05T02:58:16.950Z,99.90
2022-08-05T03:01:27.156Z,99.90
2022-08-05T03:04:30.134Z,99.90
2022-08-05T03:08:00.372Z,99.90
2022-08-05T03:11:47.611Z,99.90
2022-08-05T03:14:17.445Z,99.90
2022-08-05T03:17:20.190Z,99.90
2022-08-05T03:20:26.413Z,99.90
2022-08-05T03:23:29.783Z,99.90
2022-08-05T03:26:32.810Z,99.90
2022-08-05T03:29:45.666Z,99.90
2022-08-05T03:33:00.217Z,99.90
2022-08-05T03:36:03.576Z,99.90
2022-08-05T03:39:20.058Z,99.90
2022-08-05T03:42:32.276Z,99.90
2022-08-05T03:45:57.129Z,99.90
2022-08-05T03:48:58.252Z,99.90
2022-08-05T03:52:39.071Z,99.90
2022-08-05T03:56:05.239Z,99.90
2022-08-05T03:59:07.324Z,99.90
2022-08-05T04:02:14.968Z,99.90
2022-08-05T04:05:20.288Z,99.90
2022-08-05T04:08:35.156Z,99.90
2022-08-05T04:11:50.933Z,99.90
2022-08-05T04:14:57.705Z,99.90
2022-08-05T04:18:07.185Z,99.90
2022-08-05T04:21:10.881Z,99.90
2022-08-05T04:24:19.345Z,99.90
2022-08-05T04:27:41.516Z,99.90
2022-08-05T04:30:46.197Z,99.90
2022-08-05T04:34:18.672Z,99.90
2022-08-05T04:37:14.006Z,99.90
2022-08-05T04:40:19.293Z,99.90
2022-08-05T04:43:22.240Z,99.90
2022-08-05T04:46:27.956Z,99.90
2022-08-05T04:49:38.836Z,99.90
2022-08-05T04:52:53.178Z,99.90
2022-08-05T04:56:33.627Z,99.90
2022-08-05T04:59:24.174Z,99.90
2022-08-05T05:02:42.022Z,99.90
2022-08-05T05:06:39.919Z,99.90
2022-08-05T05:09:07.684Z,99.90
2022-08-05T05:12:10.168Z,99.90
2022-08-05T05:15:13.783Z,99.90
2022-08-05T05:18:28.657Z,99.90
2022-08-05T05:21:36.067Z,99.90
2022-08-05T05:24:58.063Z,99.90
2022-08-05T05:28:02.588Z,99.90
2022-08-05T05:31:05.735Z,99.90
2022-08-05T05:34:11.443Z,99.90
2022-08-05T05:37:15.366Z,99.90
2022-08-05T05:40:20.442Z,99.90
2022-08-05T05:43:58.372Z,99.90
2022-08-05T05:46:51.181Z,99.90
2022-08-05T05:49:56.727Z,99.90
2022-08-05T05:53:03.497Z,99.90
2022-08-05T05:56:26.020Z,99.90
2022-08-05T05:59:40.278Z,99.90
2022-08-05T06:02:43.918Z,99.90
2022-08-05T06:05:46.713Z,99.90
2022-08-05T06:08:56.675Z,99.90
2022-08-05T06:12:01.782Z,99.90
2022-08-05T06:15:08.022Z,99.90
2022-08-05T06:18:10.757Z,99.90
2022-08-05T06:21:18.613Z,99.90
2022-08-05T06:24:22.535Z,99.90
2022-08-05T06:28:12.551Z,99.90
2022-08-05T06:30:52.195Z,99.90
2022-08-05T06:34:07.509Z,99.90
2022-08-05T06:37:11.283Z,99.90
2022-08-05T06:40:20.535Z,99.90
2022-08-05T06:43:57.634Z,99.90
2022-08-05T06:46:46.053Z,99.90
2022-08-05T06:50:00.632Z,99.90
2022-08-05T06:53:11.837Z,99.90
2022-08-05T06:56:27.149Z,99.90
2022-08-05T06:59:29.506Z,99.90
2022-08-05T07:02:45.650Z,99.90
2022-08-05T07:05:47.842Z,99.90
2022-08-05T07:08:54.782Z,99.90
2022-08-05T07:12:00.439Z,99.90
2022-08-05T07:15:34.634Z,99.90
2022-08-05T07:18:50.754Z,99.90
2022-08-05T07:22:00.760Z,99.90
2022-08-05T07:25:21.956Z,99.90
2022-08-05T07:28:30.842Z,99.90
2022-08-05T07:31:40.640Z,99.90
2022-08-05T07:34:57.739Z,99.90
2022-08-05T07:38:00.250Z,99.90
2022-08-05T07:41:34.958Z,99.90
2022-08-05T07:44:28.659Z,99.90
2022-08-05T07:47:42.012Z,99.90
2022-08-05T07:50:44.624Z,99.90
2022-08-05T07:53:50.514Z,99.90
2022-08-05T07:57:01.878Z,99.90
2022-08-05T08:00:16.759Z,99.90
2022-08-05T08:03:19.080Z,99.90
2022-08-05T08:06:24.011Z,99.90
2022-08-05T08:09:30.898Z,99.90
2022-08-05T08:12:49.342Z,99.90
2022-08-05T08:16:34.905Z,99.90
2022-08-05T08:20:00.476Z,99.90
2022-08-05T08:22:37.085Z,99.90
2022-08-05T08:25:59.004Z,99.90
2022-08-05T08:29:06.068Z,99.90
2022-08-05T08:32:28.110Z,99.90
2022-08-05T08:35:35.255Z,99.90
2022-08-05T08:38:44.049Z,99.90
2022-08-05T08:42:00.000Z,99.90
2022-08-05T08:45:23.433Z,99.90
2022-08-05T08:48:41.467Z,99.90
2022-08-05T08:52:04.052Z,99.90
2022-08-05T08:55:13.048Z,99.90
2022-08-05T08:58:17.313Z,99.90
2022-08-05T09:01:21.425Z,99.90
2022-08-05T09:04:30.417Z,99.90
2022-08-05T09:07:39.783Z,99.90
2022-08-05T09:10:56.361Z,99.50
2022-08-05T09:14:09.610Z,99.90
2022-08-05T09:17:40.411Z,99.60
2022-08-05T09:20:46.057Z,99.10
2022-08-05T09:24:07.873Z,99.10
2022-08-05T09:28:05.388Z,98.80
2022-08-05T09:31:22.907Z,98.70
2022-08-05T09:34:55.568Z,98.40
2022-08-05T09:38:17.389Z,98.50
2022-08-05T09:41:22.260Z,98.40
2022-08-05T09:44:56.323Z,98.40
2022-08-05T09:48:00.445Z,98.10
2022-08-05T09:51:14.934Z,97.80
2022-08-05T09:54:28.799Z,96.90
2022-08-05T09:57:39.540Z,97.40
2022-08-05T10:00:54.347Z,97.90
2022-08-05T10:04:00.529Z,97.10
2022-08-05T10:07:06.142Z,97.60
2022-08-05T10:10:53.864Z,97.50
2022-08-05T10:13:57.057Z,97.00
2022-08-05T10:17:37.814Z,96.80
2022-08-05T10:20:42.867Z,96.80
2022-08-05T10:23:59.799Z,96.50
2022-08-05T10:27:02.788Z,96.00
2022-08-05T10:32:47.910Z,95.50
2022-08-05T10:33:34.246Z,95.30
2022-08-05T10:36:39.883Z,94.00
2022-08-05T10:39:59.048Z,94.10
2022-08-05T10:43:18.335Z,94.80
2022-08-05T10:46:42.650Z,93.80
2022-08-05T10:50:32.364Z,93.80
2022-08-05T10:53:42.652Z,93.50
2022-08-05T10:56:49.487Z,93.80
2022-08-05T11:00:29.848Z,93.50
2022-08-05T11:03:33.758Z,93.20
2022-08-05T11:06:56.471Z,93.20
2022-08-05T11:10:03.942Z,92.00
2022-08-05T11:13:39.963Z,93.00
2022-08-05T11:17:57.418Z,92.30
2022-08-05T11:20:52.668Z,92.20
2022-08-05T11:24:02.974Z,91.90
2022-08-05T11:27:50.760Z,91.70
2022-08-05T11:30:59.952Z,91.40
2022-08-05T11:34:08.174Z,91.00
2022-08-05T11:38:31.029Z,90.90
2022-08-05T11:41:03.537Z,90.80
2022-08-05T11:44:53.328Z,90.70
2022-08-05T11:47:50.412Z,90.80
2022-08-05T11:50:57.306Z,90.50
2022-08-05T11:54:01.655Z,90.30
2022-08-05T11:57:08.417Z,89.00
2022-08-05T12:00:30.359Z,88.40
2022-08-05T12:03:44.179Z,87.10
2022-08-05T12:07:01.272Z,87.00
2022-08-05T12:10:09.621Z,84.80
2022-08-05T12:13:17.410Z,84.90
2022-08-05T12:16:34.875Z,82.60
2022-08-05T12:20:26.465Z,81.70
2022-08-05T12:23:14.958Z,82.20
2022-08-05T12:26:17.614Z,82.20
2022-08-05T12:29:24.723Z,83.30
2022-08-05T12:32:27.016Z,83.10
2022-08-05T12:35:39.449Z,83.10
2022-08-05T12:38:42.374Z,83.70
2022-08-05T12:41:45.911Z,86.30
2022-08-05T12:44:49.162Z,85.80
2022-08-05T12:48:01.528Z,86.30
2022-08-05T12:52:11.031Z,87.10
2022-08-05T12:54:43.801Z,87.40
2022-08-05T12:58:50.507Z,87.20
2022-08-05T13:02:00.180Z,86.50
2022-08-05T13:04:41.790Z,86.70
2022-08-05T13:08:00.587Z,87.20
2022-08-05T13:11:04.146Z,87.60
2022-08-05T13:14:36.334Z,87.30
2022-08-05T13:17:42.230Z,86.70
2022-08-05T13:20:44.796Z,88.40
2022-08-05T13:23:50.595Z,88.10
2022-08-05T13:26:54.659Z,87.60
2022-08-05T13:29:59.376Z,87.30
2022-08-05T13:34:23.604Z,87.10
2022-08-05T13:36:43.774Z,87.30
2022-08-05T13:40:16.501Z,86.10
2022-08-05T13:43:12.088Z,86.50
2022-08-05T13:46:16.227Z,86.80
2022-08-05T13:49:18.597Z,86.90
2022-08-05T13:52:30.159Z,85.90
2022-08-05T13:55:41.139Z,86.40
2022-08-05T13:58:44.874Z,86.60
2022-08-05T14:01:59.236Z,86.30
2022-08-05T14:05:12.040Z,86.00
2022-08-05T14:08:20.774Z,85.50
2022-08-05T14:11:31.251Z,85.40
2022-08-05T14:14:33.906Z,85.20
2022-08-05T14:17:36.386Z,85.00
2022-08-05T14:20:38.946Z,84.80
2022-08-05T14:23:41.117Z,85.20
2022-08-05T14:27:01.978Z,84.50
2022-08-05T14:30:06.981Z,83.90
2022-08-05T14:33:26.076Z,83.90
2022-08-05T14:36:28.469Z,84.20
2022-08-05T14:39:50.272Z,84.00
2022-08-05T14:42:56.493Z,83.40
2022-08-05T14:45:58.997Z,83.20
2022-08-05T14:49:06.346Z,83.80
2022-08-05T14:52:12.242Z,83.20
2022-08-05T14:55:24.791Z,84.20
2022-08-05T14:58:27.211Z,84.10
2022-08-05T15:01:48.509Z,83.90
2022-08-05T15:04:51.611Z,84.30
2022-08-05T15:08:08.602Z,83.70
2022-08-05T15:11:23.383Z,83.10
2022-08-05T15:14:49.987Z,83.90
2022-08-05T15:17:53.262Z,83.70
2022-08-05T15:20:55.642Z,83.70
2022-08-05T15:23:57.867Z,83.90
2022-08-05T15:27:01.014Z,83.40
2022-08-05T15:30:04.285Z,84.00
2022-08-05T15:33:07.271Z,84.20
2022-08-05T15:36:17.389Z,83.50
2022-08-05T15:41:00.647Z,84.00
2022-08-05T15:42:53.549Z,83.50
2022-08-05T15:46:01.362Z,84.20
2022-08-05T15:49:10.089Z,83.50
2022-08-05T15:52:16.706Z,84.90
2022-08-05T15:56:02.706Z,84.10
2022-08-05T15:58:54.463Z,84.30
2022-08-05T16:01:57.849Z,84.30
2022-08-05T16:05:05.254Z,84.40
2022-08-05T16:08:12.372Z,84.80
2022-08-05T16:11:21.023Z,84.70
2022-08-05T16:14:54.343Z,85.10
2022-08-05T16:17:57.832Z,85.20
2022-08-05T16:21:04.112Z,85.10
2022-08-05T16:24:12.813Z,85.00
2022-08-05T16:27:32.228Z,85.40
2022-08-05T16:30:51.030Z,85.20
2022-08-05T16:33:55.009Z,85.50
2022-08-05T16:36:57.258Z,85.40
2022-08-05T16:40:05.058Z,85.70
2022-08-05T16:43:09.541Z,86.00
2022-08-05T16:46:23.932Z,85.40
2022-08-05T16:49:27.047Z,85.80
2022-08-05T16:52:33.689Z,85.80
2022-08-05T16:55:47.087Z,86.10
2022-08-05T16:58:49.719Z,86.20
2022-08-05T17:01:55.964Z,85.90
2022-08-05T17:04:58.607Z,86.20
2022-08-05T17:08:01.060Z,86.20
2022-08-05T17:11:04.181Z,86.90
2022-08-05T17:14:13.099Z,87.00
2022-08-05T17:17:42.802Z,87.50
2022-08-05T17:20:45.335Z,87.80
2022-08-05T17:24:05.270Z,87.50
2022-08-05T17:27:10.029Z,87.70
2022-08-05T17:30:19.002Z,88.30
2022-08-05T17:33:38.835Z,88.40
2022-08-05T17:36:50.623Z,89.00
2022-08-05T17:39:56.018Z,89.60
2022-08-05T17:42:59.945Z,89.90
2022-08-05T17:46:02.452Z,90.10
2022-08-05T17:49:06.644Z,90.50
2022-08-05T17:52:09.450Z,90.60
2022-08-05T17:55:15.362Z,90.80
2022-08-05T17:58:21.623Z,90.80
2022-08-05T18:01:49.236Z,90.80
2022-08-05T18:04:53.592Z,91.30
2022-08-05T18:07:57.322Z,91.80
2022-08-05T18:10:59.820Z,92.20
2022-08-05T18:14:04.240Z,92.30
2022-08-05T18:17:07.130Z,92.80
2022-08-05T18:20:31.618Z,93.00
2022-08-05T18:23:45.728Z,93.40
2022-08-05T18:26:49.471Z,94.10
2022-08-05T18:29:54.592Z,94.40
2022-08-05T18:33:00.279Z,94.60
2022-08-05T18:36:09.188Z,95.20
2022-08-05T18:39:42.070Z,95.60
2022-08-05T18:42:49.563Z,95.70
2022-08-05T18:45:56.202Z,96.10
2022-08-05T18:49:20.681Z,95.90
2022-08-05T18:52:33.661Z,96.00
2022-08-05T18:55:38.011Z,96.00
2022-08-05T18:58:40.418Z,96.50
2022-08-05T19:01:48.175Z,96.50
2022-08-05T19:06:05.456Z,96.70
2022-08-05T19:08:30.577Z,97.00
2022-08-05T19:11:37.164Z,97.40
2022-08-05T19:15:00.916Z,97.70
2022-08-05T19:18:10.430Z,97.60
2022-08-05T19:21:16.095Z,97.70
2022-08-05T19:24:18.534Z,97.80
2022-08-05T19:27:37.423Z,98.00
2022-08-05T19:30:44.729Z,98.40
2022-08-05T19:33:56.343Z,98.60
2022-08-05T19:36:59.554Z,98.80
2022-08-05T19:40:02.480Z,99.00
2022-08-05T19:43:10.747Z,99.30
2022-08-05T19:46:34.843Z,99.60
2022-08-05T19:49:37.494Z,99.70
2022-08-05T19:52:40.866Z,99.50
2022-08-05T19:56:14.955Z,99.70
2022-08-05T19:59:51.136Z,99.80
2022-08-05T20:02:32.335Z,99.90
2022-08-05T20:05:43.376Z,99.90
2022-08-05T20:08:53.557Z,99.90
2022-08-05T20:11:56.396Z,99.90
2022-08-05T20:15:00.912Z,99.90
2022-08-05T20:18:10.893Z,99.90
2022-08-05T20:21:28.016Z,99.90
2022-08-05T20:24:34.498Z,99.90
2022-08-05T20:27:41.908Z,99.90
2022-08-05T20:30:44.478Z,99.90
2022-08-05T20:33:47.502Z,99.90
2022-08-05T20:36:50.009Z,99.90
2022-08-05T20:39:52.300Z,99.90
2022-08-05T20:43:00.663Z,99.90
2022-08-05T20:46:02.823Z,99.90
2022-08-05T20:49:06.284Z,99.90
2022-08-05T20:52:12.329Z,99.90
2022-08-05T20:55:55.161Z,99.90
2022-08-05T20:58:37.728Z,99.90
2022-08-05T21:01:39.992Z,99.90
2022-08-05T21:04:43.287Z,99.90
2022-08-05T21:07:51.873Z,99.90
2022-08-05T21:10:54.615Z,99.90
2022-08-05T21:14:00.582Z,99.90
2022-08-05T21:17:05.435Z,99.90
2022-08-05T21:20:10.305Z,99.90
2022-08-05T21:23:14.203Z,99.90
2022-08-05T21:26:16.416Z,99.90
2022-08-05T21:29:19.883Z,99.90
2022-08-05T21:32:29.875Z,99.90
2022-08-05T21:35:55.938Z,99.90
2022-08-05T21:38:56.814Z,99.90
2022-08-05T21:42:02.219Z,99.90
2022-08-05T21:45:05.095Z,99.90
2022-08-05T21:48:13.499Z,99.90
2022-08-05T21:52:15.400Z,99.90
2022-08-05T21:54:38.807Z,99.90
2022-08-05T21:57:42.750Z,99.90
2022-08-05T22:00:51.025Z,99.90
2022-08-05T22:03:54.187Z,99.90
2022-08-05T22:06:57.231Z,99.90
2022-08-05T22:10:04.514Z,99.90
2022-08-05T22:13:09.182Z,99.90
2022-08-05T22:16:41.929Z,99.90
2022-08-05T22:20:01.553Z,99.90
2022-08-05T22:24:01.282Z,99.90
2022-08-05T22:27:17.240Z,99.90
2022-08-05T22:30:20.858Z,99.90
2022-08-05T22:33:57.323Z,99.90
2022-08-05T22:36:45.642Z,99.90
2022-08-05T22:39:51.087Z,99.90
2022-08-05T22:42:58.542Z,99.90
2022-08-05T22:46:03.547Z,99.90
2022-08-05T22:50:17.611Z,99.90
2022-08-05T22:52:34.908Z,99.90
2022-08-05T22:55:57.294Z,99.90
2022-08-05T22:59:03.114Z,99.90
2022-08-05T23:02:07.737Z,99.90
2022-08-05T23:05:10.227Z,99.90
2022-08-05T23:08:12.623Z,99.90
2022-08-05T23:11:16.685Z,99.90
2022-08-05T23:14:22.540Z,99.90
2022-08-05T23:17:37.963Z,99.90
2022-08-05T23:20:56.817Z,99.90
2022-08-05T23:24:00.762Z,99.90
2022-08-05T23:27:06.078Z,99.90
2022-08-05T23:30:08.718Z,99.90
2022-08-05T23:33:16.106Z,99.90
2022-08-05T23:36:28.252Z,99.90
2022-08-05T23:39:32.540Z,99.90
2022-08-05T23:42:53.822Z,99.90
2022-08-05T23:45:56.721Z,99.90
2022-08-05T23:49:02.084Z,99.90
2022-08-05T23:52:27.614Z,99.90
2022-08-05T23:55:31.205Z,99.90
2022-08-05T23:58:34.020Z,99.90
